sensor_id;sensor_type;location;lat;lon;timestamp;P1;durP1;ratioP1;P2;durP2;ratioP2
5333;SDS011;2689;50.954;7.116;2024-03-23T00:56:01;19.53;;;10.60;;
5333;SDS011;2689;50.954;7.116;2024-03-23T00:58:27;19.13;;;10.20;;
5333;SDS011;2689;50.954;7.116;2024-03-23T01:00:54;14.23;;;9.40;;
5333;SDS011;2689;50.954;7.116;2024-03-23T01:03:20;16.90;;;9.77;;
5333;SDS011;2689;50.954;7.116;2024-03-23T01:05:47;24.57;;;10.80;;
5333;SDS011;2689;50.954;7.116;2024-03-23T01:08:14;22.40;;;10.50;;
5333;SDS011;2689;50.954;7.116;2024-03-23T01:10:41;19.00;;;9.03;;
5333;SDS011;2689;50.954;7.116;2024-03-23T01:13:08;16.67;;;10.03;;
5333;SDS011;2689;50.954;7.116;2024-03-23T01:15:35;17.30;;;8.87;;
5333;SDS011;2689;50.954;7.116;2024-03-23T01:18:02;19.47;;;10.97;;
5333;SDS011;2689;50.954;7.116;2024-03-23T01:20:29;14.80;;;8.80;;
5333;SDS011;2689;50.954;7.116;2024-03-23T01:22:55;23.60;;;9.40;;
5333;SDS011;2689;50.954;7.116;2024-03-23T01:25:21;19.70;;;9.70;;
5333;SDS011;2689;50.954;7.116;2024-03-23T01:27:47;17.00;;;8.33;;
5333;SDS011;2689;50.954;7.116;2024-03-23T01:30:16;17.93;;;8.60;;
5333;SDS011;2689;50.954;7.116;2024-03-23T01:32:42;18.17;;;8.50;;
5333;SDS011;2689;50.954;7.116;2024-03-23T01:35:09;12.50;;;7.23;;
5333;SDS011;2689;50.954;7.116;2024-03-23T01:37:35;16.40;;;6.30;;
5333;SDS011;2689;50.954;7.116;2024-03-23T01:40:02;14.33;;;6.00;;
5333;SDS011;2689;50.954;7.116;2024-03-23T01:42:29;10.80;;;5.60;;
5333;SDS011;2689;50.954;7.116;2024-03-23T01:44:56;12.07;;;5.60;;
5333;SDS011;2689;50.954;7.116;2024-03-23T01:47:24;7.43;;;5.50;;
5333;SDS011;2689;50.954;7.116;2024-03-23T01:49:51;15.63;;;6.03;;
5333;SDS011;2689;50.954;7.116;2024-03-23T01:52:16;9.43;;;5.40;;
5333;SDS011;2689;50.954;7.116;2024-03-23T01:54:43;13.03;;;6.10;;
5333;SDS011;2689;50.954;7.116;2024-03-23T01:57:10;13.83;;;6.27;;
5333;SDS011;2689;50.954;7.116;2024-03-23T01:59:39;12.00;;;6.17;;
5333;SDS011;2689;50.954;7.116;2024-03-23T02:02:04;11.77;;;5.73;;
5333;SDS011;2689;50.954;7.116;2024-03-23T02:04:33;11.83;;;5.57;;
5333;SDS011;2689;50.954;7.116;2024-03-23T02:06:58;10.77;;;5.57;;
5333;SDS011;2689;50.954;7.116;2024-03-23T02:09:25;11.07;;;5.50;;
5333;SDS011;2689;50.954;7.116;2024-03-23T02:11:51;15.50;;;5.43;;
5333;SDS011;2689;50.954;7.116;2024-03-23T02:14:18;10.77;;;4.60;;
5333;SDS011;2689;50.954;7.116;2024-03-23T02:16:44;6.70;;;3.60;;
5333;SDS011;2689;50.954;7.116;2024-03-23T02:19:12;6.40;;;3.40;;
5333;SDS011;2689;50.954;7.116;2024-03-23T02:21:39;8.83;;;3.70;;
5333;SDS011;2689;50.954;7.116;2024-03-23T02:24:07;12.63;;;4.07;;
5333;SDS011;2689;50.954;7.116;2024-03-23T02:26:33;7.63;;;3.40;;
5333;SDS011;2689;50.954;7.116;2024-03-23T02:29:00;6.53;;;3.47;;
5333;SDS011;2689;50.954;7.116;2024-03-23T02:31:26;11.17;;;3.57;;
5333;SDS011;2689;50.954;7.116;2024-03-23T02:33:53;7.70;;;3.67;;
5333;SDS011;2689;50.954;7.116;2024-03-23T02:36:19;15.40;;;3.90;;
5333;SDS011;2689;50.954;7.116;2024-03-23T02:38:46;9.00;;;4.17;;
5333;SDS011;2689;50.954;7.116;2024-03-23T02:41:13;10.30;;;3.93;;
5333;SDS011;2689;50.954;7.116;2024-03-23T02:43:40;7.63;;;3.50;;
5333;SDS011;2689;50.954;7.116;2024-03-23T02:46:06;9.10;;;3.70;;
5333;SDS011;2689;50.954;7.116;2024-03-23T02:48:33;8.07;;;3.10;;
5333;SDS011;2689;50.954;7.116;2024-03-23T02:50:59;5.27;;;2.90;;
5333;SDS011;2689;50.954;7.116;2024-03-23T02:53:25;12.70;;;4.80;;
5333;SDS011;2689;50.954;7.116;2024-03-23T02:55:51;8.30;;;3.20;;
5333;SDS011;2689;50.954;7.116;2024-03-23T02:58:19;11.13;;;3.87;;
5333;SDS011;2689;50.954;7.116;2024-03-23T03:00:45;9.53;;;4.50;;
5333;SDS011;2689;50.954;7.116;2024-03-23T03:03:11;13.87;;;5.50;;
5333;SDS011;2689;50.954;7.116;2024-03-23T03:05:37;8.70;;;5.43;;
5333;SDS011;2689;50.954;7.116;2024-03-23T03:08:04;10.07;;;5.10;;
5333;SDS011;2689;50.954;7.116;2024-03-23T03:10:31;7.90;;;4.90;;
5333;SDS011;2689;50.954;7.116;2024-03-23T03:13:00;10.17;;;4.97;;
5333;SDS011;2689;50.954;7.116;2024-03-23T03:15:27;9.97;;;5.10;;
5333;SDS011;2689;50.954;7.116;2024-03-23T03:17:53;7.97;;;4.40;;
5333;SDS011;2689;50.954;7.116;2024-03-23T03:20:19;6.63;;;3.33;;
5333;SDS011;2689;50.954;7.116;2024-03-23T03:22:48;5.83;;;3.40;;
5333;SDS011;2689;50.954;7.116;2024-03-23T03:25:14;10.07;;;2.87;;
5333;SDS011;2689;50.954;7.116;2024-03-23T03:27:41;8.03;;;3.00;;
5333;SDS011;2689;50.954;7.116;2024-03-23T03:30:07;12.33;;;2.83;;
5333;SDS011;2689;50.954;7.116;2024-03-23T03:32:36;6.70;;;3.50;;
5333;SDS011;2689;50.954;7.116;2024-03-23T03:35:02;7.63;;;3.77;;
5333;SDS011;2689;50.954;7.116;2024-03-23T03:37:29;8.30;;;2.70;;
5333;SDS011;2689;50.954;7.116;2024-03-23T03:39:55;11.10;;;3.40;;
5333;SDS011;2689;50.954;7.116;2024-03-23T03:42:22;7.43;;;2.83;;
5333;SDS011;2689;50.954;7.116;2024-03-23T03:44:48;9.07;;;3.20;;
5333;SDS011;2689;50.954;7.116;2024-03-23T03:47:15;11.00;;;2.60;;
5333;SDS011;2689;50.954;7.116;2024-03-23T03:49:42;12.43;;;3.63;;
5333;SDS011;2689;50.954;7.116;2024-03-23T03:52:09;9.23;;;2.67;;
5333;SDS011;2689;50.954;7.116;2024-03-23T03:54:34;6.77;;;2.90;;
5333;SDS011;2689;50.954;7.116;2024-03-23T03:57:01;4.87;;;2.53;;
5333;SDS011;2689;50.954;7.116;2024-03-23T03:59:28;5.90;;;3.00;;
5333;SDS011;2689;50.954;7.116;2024-03-23T04:01:55;10.20;;;3.63;;
5333;SDS011;2689;50.954;7.116;2024-03-23T04:04:21;8.90;;;4.70;;
5333;SDS011;2689;50.954;7.116;2024-03-23T04:06:49;7.00;;;3.57;;
5333;SDS011;2689;50.954;7.116;2024-03-23T04:09:14;9.73;;;3.70;;
5333;SDS011;2689;50.954;7.116;2024-03-23T04:11:41;10.13;;;3.87;;
5333;SDS011;2689;50.954;7.116;2024-03-23T04:14:07;8.13;;;2.93;;
5333;SDS011;2689;50.954;7.116;2024-03-23T04:16:34;10.90;;;4.03;;
5333;SDS011;2689;50.954;7.116;2024-03-23T04:19:00;11.10;;;4.73;;
5333;SDS011;2689;50.954;7.116;2024-03-23T04:21:27;17.57;;;4.30;;
5333;SDS011;2689;50.954;7.116;2024-03-23T04:23:54;8.70;;;4.13;;
5333;SDS011;2689;50.954;7.116;2024-03-23T04:26:21;9.37;;;3.93;;
5333;SDS011;2689;50.954;7.116;2024-03-23T04:28:47;9.40;;;4.13;;
5333;SDS011;2689;50.954;7.116;2024-03-23T04:31:13;12.67;;;3.50;;
5333;SDS011;2689;50.954;7.116;2024-03-23T04:33:39;8.40;;;4.10;;
5333;SDS011;2689;50.954;7.116;2024-03-23T04:36:06;11.53;;;3.60;;
5333;SDS011;2689;50.954;7.116;2024-03-23T04:38:32;9.83;;;3.67;;
5333;SDS011;2689;50.954;7.116;2024-03-23T04:41:00;6.90;;;3.13;;
5333;SDS011;2689;50.954;7.116;2024-03-23T04:43:27;12.87;;;3.70;;
5333;SDS011;2689;50.954;7.116;2024-03-23T04:45:54;7.80;;;3.80;;
5333;SDS011;2689;50.954;7.116;2024-03-23T04:48:22;7.80;;;3.10;;
5333;SDS011;2689;50.954;7.116;2024-03-23T04:50:49;12.63;;;3.40;;
5333;SDS011;2689;50.954;7.116;2024-03-23T04:53:16;12.33;;;3.77;;
5333;SDS011;2689;50.954;7.116;2024-03-23T04:55:42;8.20;;;4.47;;
5333;SDS011;2689;50.954;7.116;2024-03-23T04:58:10;12.53;;;3.30;;
5333;SDS011;2689;50.954;7.116;2024-03-23T05:00:36;12.63;;;3.60;;
5333;SDS011;2689;50.954;7.116;2024-03-23T05:03:03;13.60;;;3.17;;
5333;SDS011;2689;50.954;7.116;2024-03-23T05:05:30;10.30;;;3.60;;
5333;SDS011;2689;50.954;7.116;2024-03-23T05:07:55;13.73;;;3.90;;
5333;SDS011;2689;50.954;7.116;2024-03-23T05:10:23;10.17;;;4.00;;
5333;SDS011;2689;50.954;7.116;2024-03-23T05:12:48;13.10;;;4.57;;
5333;SDS011;2689;50.954;7.116;2024-03-23T05:15:18;6.90;;;2.90;;
5333;SDS011;2689;50.954;7.116;2024-03-23T05:17:44;8.13;;;4.57;;
5333;SDS011;2689;50.954;7.116;2024-03-23T05:20:11;12.43;;;3.60;;
5333;SDS011;2689;50.954;7.116;2024-03-23T05:22:37;6.47;;;3.37;;
5333;SDS011;2689;50.954;7.116;2024-03-23T05:25:04;11.10;;;3.23;;
5333;SDS011;2689;50.954;7.116;2024-03-23T05:27:31;11.87;;;2.80;;
5333;SDS011;2689;50.954;7.116;2024-03-23T05:29:58;8.67;;;2.60;;
5333;SDS011;2689;50.954;7.116;2024-03-23T05:32:25;7.70;;;2.40;;
5333;SDS011;2689;50.954;7.116;2024-03-23T05:34:53;8.30;;;2.57;;
5333;SDS011;2689;50.954;7.116;2024-03-23T05:37:21;4.57;;;2.10;;
5333;SDS011;2689;50.954;7.116;2024-03-23T05:39:49;10.90;;;3.07;;
5333;SDS011;2689;50.954;7.116;2024-03-23T05:42:15;8.63;;;2.83;;
5333;SDS011;2689;50.954;7.116;2024-03-23T05:44:43;15.47;;;2.60;;
5333;SDS011;2689;50.954;7.116;2024-03-23T05:47:09;14.27;;;3.60;;
5333;SDS011;2689;50.954;7.116;2024-03-23T05:49:39;6.30;;;2.10;;
5333;SDS011;2689;50.954;7.116;2024-03-23T05:52:06;8.30;;;2.70;;
5333;SDS011;2689;50.954;7.116;2024-03-23T05:54:33;11.17;;;2.73;;
5333;SDS011;2689;50.954;7.116;2024-03-23T05:56:59;11.20;;;3.20;;
5333;SDS011;2689;50.954;7.116;2024-03-23T05:59:27;16.30;;;3.17;;
5333;SDS011;2689;50.954;7.116;2024-03-23T06:01:53;5.87;;;2.80;;
5333;SDS011;2689;50.954;7.116;2024-03-23T06:04:20;10.17;;;2.83;;
5333;SDS011;2689;50.954;7.116;2024-03-23T06:06:48;7.07;;;3.13;;
5333;SDS011;2689;50.954;7.116;2024-03-23T06:09:14;10.77;;;2.97;;
5333;SDS011;2689;50.954;7.116;2024-03-23T06:11:40;11.43;;;3.23;;
5333;SDS011;2689;50.954;7.116;2024-03-23T06:14:07;11.33;;;3.13;;
5333;SDS011;2689;50.954;7.116;2024-03-23T06:16:33;14.60;;;3.60;;
5333;SDS011;2689;50.954;7.116;2024-03-23T06:19:03;9.23;;;3.20;;
5333;SDS011;2689;50.954;7.116;2024-03-23T06:21:31;12.07;;;2.93;;
5333;SDS011;2689;50.954;7.116;2024-03-23T06:24:00;7.93;;;3.80;;
5333;SDS011;2689;50.954;7.116;2024-03-23T06:26:27;7.43;;;2.93;;
5333;SDS011;2689;50.954;7.116;2024-03-23T06:28:53;15.23;;;2.70;;
5333;SDS011;2689;50.954;7.116;2024-03-23T06:31:21;15.07;;;3.03;;
5333;SDS011;2689;50.954;7.116;2024-03-23T06:33:46;7.83;;;2.87;;
5333;SDS011;2689;50.954;7.116;2024-03-23T06:36:13;7.60;;;2.27;;
5333;SDS011;2689;50.954;7.116;2024-03-23T06:38:39;9.23;;;3.40;;
5333;SDS011;2689;50.954;7.116;2024-03-23T06:41:08;5.87;;;2.60;;
5333;SDS011;2689;50.954;7.116;2024-03-23T06:43:34;5.40;;;2.33;;
5333;SDS011;2689;50.954;7.116;2024-03-23T06:46:02;9.27;;;3.00;;
5333;SDS011;2689;50.954;7.116;2024-03-23T06:48:29;8.77;;;3.00;;
5333;SDS011;2689;50.954;7.116;2024-03-23T06:50:56;11.23;;;2.83;;
5333;SDS011;2689;50.954;7.116;2024-03-23T06:53:23;15.23;;;3.43;;
5333;SDS011;2689;50.954;7.116;2024-03-23T06:55:50;10.30;;;3.40;;
5333;SDS011;2689;50.954;7.116;2024-03-23T06:58:18;10.70;;;2.83;;
5333;SDS011;2689;50.954;7.116;2024-03-23T07:00:45;13.00;;;3.93;;
5333;SDS011;2689;50.954;7.116;2024-03-23T07:03:11;12.20;;;3.63;;
5333;SDS011;2689;50.954;7.116;2024-03-23T07:05:38;16.67;;;3.50;;
5333;SDS011;2689;50.954;7.116;2024-03-23T07:08:04;12.53;;;3.30;;
5333;SDS011;2689;50.954;7.116;2024-03-23T07:10:32;8.13;;;2.60;;
5333;SDS011;2689;50.954;7.116;2024-03-23T07:12:58;9.87;;;3.60;;
5333;SDS011;2689;50.954;7.116;2024-03-23T07:15:27;11.80;;;3.70;;
5333;SDS011;2689;50.954;7.116;2024-03-23T07:17:54;10.00;;;3.13;;
5333;SDS011;2689;50.954;7.116;2024-03-23T07:20:21;10.23;;;3.40;;
5333;SDS011;2689;50.954;7.116;2024-03-23T07:22:47;13.00;;;3.90;;
5333;SDS011;2689;50.954;7.116;2024-03-23T07:25:14;9.90;;;3.50;;
5333;SDS011;2689;50.954;7.116;2024-03-23T07:27:40;13.40;;;3.73;;
5333;SDS011;2689;50.954;7.116;2024-03-23T07:30:08;15.70;;;4.07;;
5333;SDS011;2689;50.954;7.116;2024-03-23T07:32:35;13.00;;;4.40;;
5333;SDS011;2689;50.954;7.116;2024-03-23T07:35:02;17.77;;;4.10;;
5333;SDS011;2689;50.954;7.116;2024-03-23T07:37:29;17.53;;;3.70;;
5333;SDS011;2689;50.954;7.116;2024-03-23T07:39:57;8.13;;;3.70;;
5333;SDS011;2689;50.954;7.116;2024-03-23T07:42:24;11.13;;;3.70;;
5333;SDS011;2689;50.954;7.116;2024-03-23T07:44:51;9.77;;;4.10;;
5333;SDS011;2689;50.954;7.116;2024-03-23T07:47:20;8.07;;;3.50;;
5333;SDS011;2689;50.954;7.116;2024-03-23T07:49:48;8.17;;;3.80;;
5333;SDS011;2689;50.954;7.116;2024-03-23T07:52:14;11.20;;;3.67;;
5333;SDS011;2689;50.954;7.116;2024-03-23T07:54:41;16.10;;;4.17;;
5333;SDS011;2689;50.954;7.116;2024-03-23T07:57:08;8.53;;;4.03;;
5333;SDS011;2689;50.954;7.116;2024-03-23T07:59:35;9.57;;;3.30;;
5333;SDS011;2689;50.954;7.116;2024-03-23T08:02:01;15.07;;;3.90;;
5333;SDS011;2689;50.954;7.116;2024-03-23T08:04:28;11.10;;;4.30;;
5333;SDS011;2689;50.954;7.116;2024-03-23T08:06:57;10.83;;;3.80;;
5333;SDS011;2689;50.954;7.116;2024-03-23T08:09:24;10.70;;;3.80;;
5333;SDS011;2689;50.954;7.116;2024-03-23T08:11:50;9.93;;;5.27;;
5333;SDS011;2689;50.954;7.116;2024-03-23T08:14:17;11.10;;;5.07;;
5333;SDS011;2689;50.954;7.116;2024-03-23T08:16:48;10.37;;;4.73;;
5333;SDS011;2689;50.954;7.116;2024-03-23T08:19:16;13.17;;;5.00;;
5333;SDS011;2689;50.954;7.116;2024-03-23T08:21:42;15.20;;;5.17;;
5333;SDS011;2689;50.954;7.116;2024-03-23T08:24:13;12.10;;;4.80;;
5333;SDS011;2689;50.954;7.116;2024-03-23T08:26:39;8.53;;;5.00;;
5333;SDS011;2689;50.954;7.116;2024-03-23T08:29:06;7.07;;;4.17;;
5333;SDS011;2689;50.954;7.116;2024-03-23T08:31:32;15.30;;;5.03;;
5333;SDS011;2689;50.954;7.116;2024-03-23T08:34:03;10.43;;;4.37;;
5333;SDS011;2689;50.954;7.116;2024-03-23T08:36:32;10.67;;;3.30;;
5333;SDS011;2689;50.954;7.116;2024-03-23T08:39:22;8.50;;;3.57;;
5333;SDS011;2689;50.954;7.116;2024-03-23T08:41:50;8.43;;;3.77;;
5333;SDS011;2689;50.954;7.116;2024-03-23T08:46:56;7.83;;;3.60;;
5333;SDS011;2689;50.954;7.116;2024-03-23T08:49:24;10.80;;;4.60;;
5333;SDS011;2689;50.954;7.116;2024-03-23T08:51:50;8.40;;;3.50;;
5333;SDS011;2689;50.954;7.116;2024-03-23T08:54:29;9.63;;;3.70;;
5333;SDS011;2689;50.954;7.116;2024-03-23T08:56:56;11.47;;;3.60;;
5333;SDS011;2689;50.954;7.116;2024-03-23T08:59:23;10.07;;;3.00;;
5333;SDS011;2689;50.954;7.116;2024-03-23T09:01:49;15.30;;;4.07;;
5333;SDS011;2689;50.954;7.116;2024-03-23T09:04:16;7.30;;;3.37;;
5333;SDS011;2689;50.954;7.116;2024-03-23T09:06:42;12.93;;;3.77;;
5333;SDS011;2689;50.954;7.116;2024-03-23T09:09:10;9.10;;;3.27;;
5333;SDS011;2689;50.954;7.116;2024-03-23T09:11:37;5.53;;;2.50;;
5333;SDS011;2689;50.954;7.116;2024-03-23T09:14:06;9.00;;;3.97;;
5333;SDS011;2689;50.954;7.116;2024-03-23T09:16:32;12.13;;;4.73;;
5333;SDS011;2689;50.954;7.116;2024-03-23T09:19:00;8.97;;;4.13;;
5333;SDS011;2689;50.954;7.116;2024-03-23T09:21:26;10.40;;;4.00;;
5333;SDS011;2689;50.954;7.116;2024-03-23T09:23:53;5.63;;;3.23;;
5333;SDS011;2689;50.954;7.116;2024-03-23T09:26:19;10.37;;;3.63;;
5333;SDS011;2689;50.954;7.116;2024-03-23T09:28:49;7.53;;;3.73;;
5333;SDS011;2689;50.954;7.116;2024-03-23T09:31:15;8.83;;;3.30;;
5333;SDS011;2689;50.954;7.116;2024-03-23T09:33:43;9.60;;;3.90;;
5333;SDS011;2689;50.954;7.116;2024-03-23T09:36:09;14.63;;;4.07;;
5333;SDS011;2689;50.954;7.116;2024-03-23T09:38:37;8.17;;;3.97;;
5333;SDS011;2689;50.954;7.116;2024-03-23T09:41:07;11.20;;;3.70;;
5333;SDS011;2689;50.954;7.116;2024-03-23T09:43:35;5.40;;;2.80;;
5333;SDS011;2689;50.954;7.116;2024-03-23T09:46:05;6.67;;;2.53;;
5333;SDS011;2689;50.954;7.116;2024-03-23T09:48:34;7.40;;;3.10;;
5333;SDS011;2689;50.954;7.116;2024-03-23T09:51:02;11.00;;;2.83;;
5333;SDS011;2689;50.954;7.116;2024-03-23T09:53:29;9.63;;;3.00;;
5333;SDS011;2689;50.954;7.116;2024-03-23T09:55:56;7.10;;;2.97;;
5333;SDS011;2689;50.954;7.116;2024-03-23T09:58:23;18.93;;;3.20;;
5333;SDS011;2689;50.954;7.116;2024-03-23T10:00:49;7.10;;;2.43;;
5333;SDS011;2689;50.954;7.116;2024-03-23T10:03:23;7.37;;;3.13;;
5333;SDS011;2689;50.954;7.116;2024-03-23T10:05:58;13.97;;;2.23;;
5333;SDS011;2689;50.954;7.116;2024-03-23T10:08:26;6.90;;;2.07;;
5333;SDS011;2689;50.954;7.116;2024-03-23T10:10:54;9.80;;;2.80;;
5333;SDS011;2689;50.954;7.116;2024-03-23T10:13:24;9.20;;;2.90;;
5333;SDS011;2689;50.954;7.116;2024-03-23T10:15:57;5.23;;;2.47;;
5333;SDS011;2689;50.954;7.116;2024-03-23T10:18:27;8.33;;;2.57;;
5333;SDS011;2689;50.954;7.116;2024-03-23T10:21:06;4.70;;;2.60;;
5333;SDS011;2689;50.954;7.116;2024-03-23T10:23:36;5.20;;;1.77;;
5333;SDS011;2689;50.954;7.116;2024-03-23T10:26:12;5.50;;;1.50;;
5333;SDS011;2689;50.954;7.116;2024-03-23T10:28:53;5.93;;;2.07;;
5333;SDS011;2689;50.954;7.116;2024-03-23T10:31:21;5.90;;;2.60;;
5333;SDS011;2689;50.954;7.116;2024-03-23T10:33:50;4.57;;;1.80;;
5333;SDS011;2689;50.954;7.116;2024-03-23T10:36:19;5.73;;;2.53;;
5333;SDS011;2689;50.954;7.116;2024-03-23T10:38:46;9.67;;;2.87;;
5333;SDS011;2689;50.954;7.116;2024-03-23T10:41:14;5.80;;;3.17;;
5333;SDS011;2689;50.954;7.116;2024-03-23T10:43:41;7.40;;;2.83;;
5333;SDS011;2689;50.954;7.116;2024-03-23T10:46:09;7.13;;;2.13;;
5333;SDS011;2689;50.954;7.116;2024-03-23T10:48:36;9.33;;;3.07;;
5333;SDS011;2689;50.954;7.116;2024-03-23T10:51:04;6.13;;;1.83;;
5333;SDS011;2689;50.954;7.116;2024-03-23T10:53:32;5.27;;;2.03;;
5333;SDS011;2689;50.954;7.116;2024-03-23T10:55:59;7.17;;;2.00;;
5333;SDS011;2689;50.954;7.116;2024-03-23T10:58:27;2.47;;;1.40;;
5333;SDS011;2689;50.954;7.116;2024-03-23T11:00:56;4.23;;;1.73;;
5333;SDS011;2689;50.954;7.116;2024-03-23T11:03:29;4.53;;;1.40;;
5333;SDS011;2689;50.954;7.116;2024-03-23T11:05:59;5.13;;;1.90;;
5333;SDS011;2689;50.954;7.116;2024-03-23T11:08:34;2.93;;;1.60;;
5333;SDS011;2689;50.954;7.116;2024-03-23T11:13:57;3.93;;;1.70;;
5333;SDS011;2689;50.954;7.116;2024-03-23T11:16:24;19.37;;;2.50;;
5333;SDS011;2689;50.954;7.116;2024-03-23T11:18:55;4.33;;;1.80;;
5333;SDS011;2689;50.954;7.116;2024-03-23T11:21:58;7.07;;;3.27;;
5333;SDS011;2689;50.954;7.116;2024-03-23T11:24:27;3.33;;;2.17;;
5333;SDS011;2689;50.954;7.116;2024-03-23T11:26:53;11.93;;;3.70;;
5333;SDS011;2689;50.954;7.116;2024-03-23T11:29:20;9.27;;;5.40;;
5333;SDS011;2689;50.954;7.116;2024-03-23T11:31:46;5.23;;;2.03;;
5333;SDS011;2689;50.954;7.116;2024-03-23T11:34:15;3.30;;;1.70;;
5333;SDS011;2689;50.954;7.116;2024-03-23T11:36:41;16.73;;;6.40;;
5333;SDS011;2689;50.954;7.116;2024-03-23T11:39:12;9.77;;;4.20;;
5333;SDS011;2689;50.954;7.116;2024-03-23T11:41:46;13.60;;;6.20;;
5333;SDS011;2689;50.954;7.116;2024-03-23T11:44:14;6.00;;;3.53;;
5333;SDS011;2689;50.954;7.116;2024-03-23T11:46:40;6.50;;;3.23;;
5333;SDS011;2689;50.954;7.116;2024-03-23T11:49:17;7.37;;;3.43;;
5333;SDS011;2689;50.954;7.116;2024-03-23T11:51:47;6.20;;;3.83;;
5333;SDS011;2689;50.954;7.116;2024-03-23T11:54:14;9.20;;;3.43;;
5333;SDS011;2689;50.954;7.116;2024-03-23T11:56:40;3.07;;;2.20;;
5333;SDS011;2689;50.954;7.116;2024-03-23T11:59:09;2.80;;;1.73;;
5333;SDS011;2689;50.954;7.116;2024-03-23T12:01:34;6.33;;;3.80;;
5333;SDS011;2689;50.954;7.116;2024-03-23T12:04:04;4.10;;;2.23;;
5333;SDS011;2689;50.954;7.116;2024-03-23T12:06:31;6.10;;;3.20;;
5333;SDS011;2689;50.954;7.116;2024-03-23T12:09:05;4.13;;;2.17;;
5333;SDS011;2689;50.954;7.116;2024-03-23T12:11:31;5.40;;;3.03;;
5333;SDS011;2689;50.954;7.116;2024-03-23T12:13:59;2.63;;;1.53;;
5333;SDS011;2689;50.954;7.116;2024-03-23T12:16:26;2.90;;;1.90;;
5333;SDS011;2689;50.954;7.116;2024-03-23T12:18:53;8.70;;;5.20;;
5333;SDS011;2689;50.954;7.116;2024-03-23T12:21:30;5.00;;;1.93;;
5333;SDS011;2689;50.954;7.116;2024-03-23T12:23:57;3.77;;;1.87;;
5333;SDS011;2689;50.954;7.116;2024-03-23T12:26:23;2.63;;;1.40;;
5333;SDS011;2689;50.954;7.116;2024-03-23T12:28:51;2.90;;;1.43;;
5333;SDS011;2689;50.954;7.116;2024-03-23T12:31:17;9.90;;;1.80;;
5333;SDS011;2689;50.954;7.116;2024-03-23T12:33:45;8.23;;;2.70;;
5333;SDS011;2689;50.954;7.116;2024-03-23T12:36:11;3.93;;;1.57;;
5333;SDS011;2689;50.954;7.116;2024-03-23T12:38:39;3.47;;;1.50;;
5333;SDS011;2689;50.954;7.116;2024-03-23T12:41:06;2.23;;;1.43;;
5333;SDS011;2689;50.954;7.116;2024-03-23T12:43:34;2.63;;;1.73;;
5333;SDS011;2689;50.954;7.116;2024-03-23T12:46:06;7.37;;;4.80;;
5333;SDS011;2689;50.954;7.116;2024-03-23T12:48:33;5.63;;;2.60;;
5333;SDS011;2689;50.954;7.116;2024-03-23T12:51:01;3.83;;;1.97;;
5333;SDS011;2689;50.954;7.116;2024-03-23T12:53:29;3.60;;;1.80;;
5333;SDS011;2689;50.954;7.116;2024-03-23T12:55:55;1.90;;;1.47;;
5333;SDS011;2689;50.954;7.116;2024-03-23T12:58:22;2.67;;;1.40;;
5333;SDS011;2689;50.954;7.116;2024-03-23T13:00:50;2.63;;;2.27;;
5333;SDS011;2689;50.954;7.116;2024-03-23T13:03:17;2.73;;;1.60;;
5333;SDS011;2689;50.954;7.116;2024-03-23T13:05:43;3.50;;;1.40;;
5333;SDS011;2689;50.954;7.116;2024-03-23T13:08:14;1.90;;;1.30;;
5333;SDS011;2689;50.954;7.116;2024-03-23T13:10:40;2.37;;;1.40;;
5333;SDS011;2689;50.954;7.116;2024-03-23T13:13:08;3.20;;;1.10;;
5333;SDS011;2689;50.954;7.116;2024-03-23T13:15:34;1.10;;;1.00;;
5333;SDS011;2689;50.954;7.116;2024-03-23T13:18:01;3.23;;;1.20;;
5333;SDS011;2689;50.954;7.116;2024-03-23T13:20:27;2.00;;;1.40;;
5333;SDS011;2689;50.954;7.116;2024-03-23T13:22:55;3.20;;;1.90;;
5333;SDS011;2689;50.954;7.116;2024-03-23T13:25:22;2.50;;;1.10;;
5333;SDS011;2689;50.954;7.116;2024-03-23T13:27:49;3.97;;;2.40;;
5333;SDS011;2689;50.954;7.116;2024-03-23T13:30:15;3.07;;;1.47;;
5333;SDS011;2689;50.954;7.116;2024-03-23T13:32:43;6.03;;;1.30;;
5333;SDS011;2689;50.954;7.116;2024-03-23T13:35:09;4.13;;;2.43;;
5333;SDS011;2689;50.954;7.116;2024-03-23T13:37:37;3.27;;;1.90;;
5333;SDS011;2689;50.954;7.116;2024-03-23T13:40:03;5.63;;;3.50;;
5333;SDS011;2689;50.954;7.116;2024-03-23T13:42:32;3.93;;;2.07;;
5333;SDS011;2689;50.954;7.116;2024-03-23T13:44:58;3.60;;;1.60;;
5333;SDS011;2689;50.954;7.116;2024-03-23T13:47:25;3.00;;;1.30;;
5333;SDS011;2689;50.954;7.116;2024-03-23T13:49:51;2.20;;;1.50;;
5333;SDS011;2689;50.954;7.116;2024-03-23T13:52:21;4.97;;;1.67;;
5333;SDS011;2689;50.954;7.116;2024-03-23T13:54:49;3.80;;;1.83;;
5333;SDS011;2689;50.954;7.116;2024-03-23T13:57:17;3.30;;;1.60;;
5333;SDS011;2689;50.954;7.116;2024-03-23T13:59:48;2.90;;;1.60;;
5333;SDS011;2689;50.954;7.116;2024-03-23T14:02:15;4.57;;;2.60;;
5333;SDS011;2689;50.954;7.116;2024-03-23T14:04:41;5.50;;;2.80;;
5333;SDS011;2689;50.954;7.116;2024-03-23T14:07:09;2.60;;;2.03;;
5333;SDS011;2689;50.954;7.116;2024-03-23T14:09:35;4.90;;;2.13;;
5333;SDS011;2689;50.954;7.116;2024-03-23T14:12:03;4.07;;;2.43;;
5333;SDS011;2689;50.954;7.116;2024-03-23T14:14:34;3.83;;;2.60;;
5333;SDS011;2689;50.954;7.116;2024-03-23T14:17:02;4.30;;;1.57;;
5333;SDS011;2689;50.954;7.116;2024-03-23T14:19:28;4.80;;;1.77;;
5333;SDS011;2689;50.954;7.116;2024-03-23T14:21:55;8.73;;;4.60;;
5333;SDS011;2689;50.954;7.116;2024-03-23T14:24:21;5.43;;;2.60;;
5333;SDS011;2689;50.954;7.116;2024-03-23T14:26:49;5.27;;;3.10;;
5333;SDS011;2689;50.954;7.116;2024-03-23T14:29:15;3.17;;;1.63;;
5333;SDS011;2689;50.954;7.116;2024-03-23T14:31:43;2.10;;;1.50;;
5333;SDS011;2689;50.954;7.116;2024-03-23T14:34:10;4.70;;;2.70;;
5333;SDS011;2689;50.954;7.116;2024-03-23T14:36:37;7.20;;;1.27;;
5333;SDS011;2689;50.954;7.116;2024-03-23T14:39:03;1.90;;;1.40;;
5333;SDS011;2689;50.954;7.116;2024-03-23T14:41:30;2.97;;;1.60;;
5333;SDS011;2689;50.954;7.116;2024-03-23T14:43:56;6.03;;;2.47;;
5333;SDS011;2689;50.954;7.116;2024-03-23T14:46:23;3.60;;;1.53;;
5333;SDS011;2689;50.954;7.116;2024-03-23T14:48:49;4.80;;;2.33;;
5333;SDS011;2689;50.954;7.116;2024-03-23T14:51:22;2.77;;;1.40;;
5333;SDS011;2689;50.954;7.116;2024-03-23T14:53:47;3.13;;;1.90;;
5333;SDS011;2689;50.954;7.116;2024-03-23T14:56:15;6.50;;;3.37;;
5333;SDS011;2689;50.954;7.116;2024-03-23T14:58:41;4.50;;;1.80;;
5333;SDS011;2689;50.954;7.116;2024-03-23T15:01:10;5.43;;;1.90;;
5333;SDS011;2689;50.954;7.116;2024-03-23T15:03:36;4.53;;;3.10;;
5333;SDS011;2689;50.954;7.116;2024-03-23T15:06:04;6.10;;;2.97;;
5333;SDS011;2689;50.954;7.116;2024-03-23T15:08:32;7.50;;;2.93;;
5333;SDS011;2689;50.954;7.116;2024-03-23T15:10:59;2.20;;;1.40;;
5333;SDS011;2689;50.954;7.116;2024-03-23T15:13:30;2.40;;;1.13;;
5333;SDS011;2689;50.954;7.116;2024-03-23T15:15:58;2.17;;;1.10;;
5333;SDS011;2689;50.954;7.116;2024-03-23T15:18:24;2.50;;;1.20;;
5333;SDS011;2689;50.954;7.116;2024-03-23T15:20:53;1.93;;;1.20;;
5333;SDS011;2689;50.954;7.116;2024-03-23T15:23:19;6.50;;;2.40;;
5333;SDS011;2689;50.954;7.116;2024-03-23T15:25:53;3.63;;;1.43;;
5333;SDS011;2689;50.954;7.116;2024-03-23T15:28:19;6.67;;;1.70;;
5333;SDS011;2689;50.954;7.116;2024-03-23T15:30:46;2.87;;;1.63;;
5333;SDS011;2689;50.954;7.116;2024-03-23T15:33:12;3.27;;;1.70;;
5333;SDS011;2689;50.954;7.116;2024-03-23T15:35:39;3.63;;;1.93;;
5333;SDS011;2689;50.954;7.116;2024-03-23T15:38:05;5.90;;;2.90;;
5333;SDS011;2689;50.954;7.116;2024-03-23T15:40:32;2.80;;;1.80;;
5333;SDS011;2689;50.954;7.116;2024-03-23T15:43:00;2.50;;;1.60;;
5333;SDS011;2689;50.954;7.116;2024-03-23T15:45:27;5.40;;;1.90;;
5333;SDS011;2689;50.954;7.116;2024-03-23T15:47:53;1.40;;;1.10;;
5333;SDS011;2689;50.954;7.116;2024-03-23T15:50:21;4.20;;;1.30;;
5333;SDS011;2689;50.954;7.116;2024-03-23T15:52:49;5.07;;;1.70;;
5333;SDS011;2689;50.954;7.116;2024-03-23T15:55:16;1.90;;;1.40;;
5333;SDS011;2689;50.954;7.116;2024-03-23T15:57:42;4.23;;;1.83;;
5333;SDS011;2689;50.954;7.116;2024-03-23T16:00:12;2.67;;;1.50;;
5333;SDS011;2689;50.954;7.116;2024-03-23T16:02:38;3.10;;;1.57;;
5333;SDS011;2689;50.954;7.116;2024-03-23T16:05:06;4.10;;;1.60;;
5333;SDS011;2689;50.954;7.116;2024-03-23T16:07:36;4.60;;;1.50;;
5333;SDS011;2689;50.954;7.116;2024-03-23T16:10:04;2.83;;;1.40;;
5333;SDS011;2689;50.954;7.116;2024-03-23T16:12:34;2.27;;;2.00;;